Time;durP1;ratioP1;P1;durP2;ratioP2;P2;SDS_P1;SDS_P2;PMS_P1;PMS_P2;Temp;Humidity;BMP_temperature;BMP_pressure;BME280_temperature;BME280_humidity;BME280_pressure;Samples;Min_cycle;Max_cycle;Signal;HPM_P1;HPM_P2
2022/12/29 00:00:04;;;;;;;12.07;7.27;;;11.40;99.90;;;;;;5033817;28;20483;-62
2022/12/29 00:02:30;;;;;;;12.73;6.83;;;11.50;99.90;;;;;;5062005;28;20965;-62
2022/12/29 00:04:57;;;;;;;20.80;9.70;;;11.50;99.90;;;;;;5036018;28;20484;-62
2022/12/29 00:07:24;;;;;;;10.03;5.67;;;11.50;99.90;;;;;;5050101;28;21082;-62
2022/12/29 00:09:52;;;;;;;18.10;9.50;;;11.60;99.90;;;;;;5037848;28;20797;-61
2022/12/29 00:12:18;;;;;;;10.47;5.80;;;11.60;99.90;;;;;;5060433;28;20473;-62
2022/12/29 00:17:30;;;;;;;9.47;5.33;;;11.80;99.90;;;;;;5039969;28;20620;-62
2022/12/29 00:36:33;;;;;;;11.93;7.10;;;11.60;99.90;;;;;;5036541;28;20518;-62
2022/12/29 00:44:33;;;;;;;8.90;5.20;;;11.40;99.90;;;;;;5056325;27;20536;-62
2022/12/29 00:47:02;;;;;;;12.93;6.50;;;11.30;99.90;;;;;;5057232;27;21869;-62
2022/12/29 00:49:32;;;;;;;12.40;7.00;;;11.40;99.90;;;;;;5060268;27;20573;-62
2022/12/29 00:52:00;;;;;;;14.20;7.30;;;11.30;99.90;;;;;;5030385;28;20801;-62
2022/12/29 00:54:28;;;;;;;14.90;8.00;;;11.40;99.90;;;;;;5054895;28;20474;-62
2022/12/29 00:56:56;;;;;;;15.77;8.77;;;11.30;99.90;;;;;;5054639;28;21023;-62
2022/12/29 00:59:23;;;;;;;12.07;6.63;;;11.40;99.90;;;;;;5050939;28;20834;-62
2022/12/29 01:01:52;;;;;;;17.57;9.33;;;10.40;99.90;;;;;;5048541;28;20731;-62
2022/12/29 01:04:20;;;;;;;13.27;4.87;;;11.40;99.90;;;;;;5053796;28;20585;-61
2022/12/29 01:06:47;;;;;;;17.77;8.60;;;11.40;99.90;;;;;;5044217;28;20877;-61
2022/12/29 01:12:00;;;;;;;14.33;6.90;;;11.60;99.90;;;;;;5057962;28;20481;-62
2022/12/29 01:14:27;;;;;;;9.27;5.90;;;11.60;99.90;;;;;;5066303;28;20510;-61
2022/12/29 01:16:55;;;;;;;21.83;8.07;;;11.60;99.90;;;;;;5051452;28;20479;-62
2022/12/29 01:19:22;;;;;;;9.80;5.70;;;11.60;99.90;;;;;;5048789;28;20479;-62
2022/12/29 01:21:49;;;;;;;20.87;10.10;;;11.50;99.90;;;;;;5049936;28;21020;-61
2022/12/29 01:24:17;;;;;;;23.13;5.70;;;11.40;99.90;;;;;;5050716;28;20676;-62
2022/12/29 01:26:44;;;;;;;20.80;9.83;;;11.40;99.90;;;;;;5056595;28;20483;-62
2022/12/29 01:29:12;;;;;;;8.10;4.83;;;11.40;99.90;;;;;;5050294;28;20491;-61
2022/12/29 01:31:39;;;;;;;15.20;6.30;;;11.30;99.90;;;;;;5055198;28;20479;-62
2022/12/29 01:34:06;;;;;;;10.00;4.70;;;11.40;99.90;;;;;;5068086;28;20932;-62
2022/12/29 01:36:33;;;;;;;15.03;8.30;;;11.40;99.90;;;;;;5038829;28;20487;-62
2022/12/29 01:39:00;;;;;;;16.13;5.10;;;11.40;99.90;;;;;;5067507;28;20497;-62
2022/12/29 01:41:27;;;;;;;10.90;5.50;;;11.10;99.90;;;;;;5057084;28;21220;-62
2022/12/29 01:43:56;;;;;;;18.03;8.70;;;11.20;99.90;;;;;;5040127;28;20487;-62
2022/12/29 01:46:28;;;;;;;12.33;4.43;;;11.40;99.90;;;;;;5055205;28;20576;-62
2022/12/29 01:49:01;;;;;;;20.03;9.03;;;11.40;99.90;;;;;;5050658;28;20482;-62
2022/12/29 01:51:30;;;;;;;20.73;5.23;;;11.50;99.90;;;;;;5054378;28;20576;-62
2022/12/29 01:54:00;;;;;;;14.43;7.10;;;11.50;99.90;;;;;;5051946;28;20491;-62
2022/12/29 01:56:27;;;;;;;16.90;6.13;;;11.50;99.90;;;;;;5053229;28;20576;-62
2022/12/29 01:59:01;;;;;;;19.23;6.77;;;11.40;99.90;;;;;;5050114;28;20482;-61
2022/12/29 02:01:29;;;;;;;9.10;5.73;;;11.40;99.90;;;;;;5056741;28;20938;-62
2022/12/29 02:03:56;;;;;;;28.90;10.17;;;11.40;99.90;;;;;;5049811;28;20486;-62
2022/12/29 02:06:27;;;;;;;15.90;5.57;;;11.40;99.90;;;;;;5055964;28;20860;-62
2022/12/29 02:08:55;;;;;;;13.97;7.83;;;11.40;99.90;;;;;;5046636;28;20494;-62
2022/12/29 02:11:24;;;;;;;13.40;4.70;;;11.30;99.90;;;;;;5046395;28;20670;-62
2022/12/29 02:13:51;;;;;;;21.43;11.13;;;11.30;99.90;;;;;;5050834;28;20949;-62
2022/12/29 02:16:50;;;;;;;6.83;4.17;;;11.30;99.90;;;;;;5067162;28;20483;-61
2022/12/29 02:19:55;;;;;;;10.53;5.80;;;11.40;99.90;;;;;;5030488;28;20471;-62
2022/12/29 02:22:30;;;;;;;6.87;4.10;;;11.40;99.90;;;;;;5049941;28;20506;-61
2022/12/29 02:25:19;;;;;;;16.60;8.63;;;11.30;99.90;;;;;;5083926;27;20494;-62
2022/12/29 02:28:03;;;;;;;14.17;8.07;;;11.20;99.90;;;;;;5056595;28;20826;-61
2022/12/29 02:30:58;;;;;;;15.10;6.23;;;11.40;99.90;;;;;;5062876;28;20532;-61
2022/12/29 02:33:39;;;;;;;15.40;6.90;;;11.30;99.90;;;;;;5069067;27;20511;-61
2022/12/29 02:36:19;;;;;;;8.33;4.10;;;11.30;99.90;;;;;;5061303;27;20476;-61
2022/12/29 02:38:53;;;;;;;8.50;5.47;;;11.40;99.90;;;;;;5070316;27;20912;-61
2022/12/29 02:41:25;;;;;;;8.77;4.30;;;11.30;99.90;;;;;;5075976;27;20478;-61
2022/12/29 02:43:59;;;;;;;18.07;9.23;;;11.40;99.90;;;;;;5063876;27;20569;-61
2022/12/29 02:46:35;;;;;;;7.60;4.50;;;11.30;99.90;;;;;;5073886;27;20813;-62
2022/12/29 02:49:09;;;;;;;11.33;6.67;;;11.40;99.90;;;;;;5055867;28;20470;-61
2022/12/29 02:51:39;;;;;;;9.37;6.17;;;11.40;99.90;;;;;;5074595;27;20530;-61
2022/12/29 02:56:50;;;;;;;9.83;5.90;;;11.50;99.90;;;;;;5053764;28;20823;-62
2022/12/29 02:59:18;;;;;;;8.83;4.97;;;11.30;99.90;;;;;;5070259;28;20535;-61
2022/12/29 03:02:20;;;;;;;16.87;7.77;;;11.40;99.90;;;;;;5082095;27;20545;-61
2022/12/29 03:05:19;;;;;;;15.00;7.90;;;11.50;99.90;;;;;;5013089;27;20529;-61
2022/12/29 03:07:57;;;;;;;12.07;6.70;;;11.50;99.90;;;;;;5053782;28;20475;-61
2022/12/29 03:10:36;;;;;;;17.37;6.40;;;11.40;99.90;;;;;;5034030;28;20490;-61
2022/12/29 03:16:06;;;;;;;15.50;7.60;;;11.30;99.90;;;;;;5058420;27;21146;-60
2022/12/29 03:18:41;;;;;;;13.70;6.90;;;11.40;99.90;;;;;;5080414;27;20654;-61
2022/12/29 03:21:13;;;;;;;6.43;4.50;;;11.40;99.90;;;;;;5057109;27;20469;-62
2022/12/29 03:23:42;;;;;;;8.70;4.93;;;11.40;99.90;;;;;;5072369;28;21327;-61
2022/12/29 03:26:12;;;;;;;10.40;4.50;;;11.50;99.90;;;;;;5069755;27;20477;-62
2022/12/29 03:28:41;;;;;;;13.93;7.30;;;11.60;99.90;;;;;;5072385;27;21042;-61
2022/12/29 03:31:10;;;;;;;17.53;5.73;;;11.50;99.90;;;;;;5058478;27;20485;-61
2022/12/29 03:33:40;;;;;;;9.63;5.33;;;11.50;99.90;;;;;;5076089;28;20483;-61
2022/12/29 03:36:10;;;;;;;7.60;4.77;;;11.50;99.90;;;;;;5050616;27;20781;-61
2022/12/29 03:38:43;;;;;;;26.47;6.67;;;11.50;99.90;;;;;;5088747;27;20474;-61
2022/12/29 03:41:13;;;;;;;7.10;4.10;;;11.50;99.90;;;;;;5088607;27;21094;-62
2022/12/29 03:43:40;;;;;;;15.97;7.70;;;11.60;99.90;;;;;;5086522;27;20547;-61
2022/12/29 03:46:07;;;;;;;11.63;5.20;;;11.70;99.90;;;;;;5059890;28;20479;-61
2022/12/29 03:48:33;;;;;;;7.80;4.97;;;11.70;99.90;;;;;;5056668;28;20483;-60
2022/12/29 03:51:01;;;;;;;9.63;5.33;;;11.60;99.90;;;;;;5068872;27;20489;-61
2022/12/29 03:53:28;;;;;;;11.10;5.87;;;11.70;99.90;;;;;;5066779;28;20902;-61
2022/12/29 03:55:55;;;;;;;20.40;8.93;;;11.80;99.90;;;;;;5075054;27;20504;-61
2022/12/29 03:58:21;;;;;;;8.40;4.67;;;11.70;99.90;;;;;;5082101;27;20486;-60
2022/12/29 04:00:48;;;;;;;20.30;9.37;;;11.70;99.90;;;;;;5073790;28;20548;-60
2022/12/29 04:03:15;;;;;;;10.00;5.50;;;11.80;99.90;;;;;;5063546;27;20531;-61
2022/12/29 04:05:41;;;;;;;12.67;6.43;;;11.80;99.90;;;;;;5100016;27;20476;-61
2022/12/29 04:08:09;;;;;;;14.30;5.57;;;11.80;99.90;;;;;;5076540;27;20571;-61
2022/12/29 04:10:36;;;;;;;12.03;5.90;;;11.70;99.90;;;;;;5066687;27;20934;-61
2022/12/29 04:13:03;;;;;;;15.20;7.87;;;11.80;99.90;;;;;;5062142;28;20472;-61
2022/12/29 04:15:29;;;;;;;9.80;4.13;;;11.80;99.90;;;;;;5047726;27;20498;-61
2022/12/29 04:17:56;;;;;;;16.87;8.50;;;11.90;99.90;;;;;;5074669;27;20485;-61
2022/12/29 04:23:08;;;;;;;14.63;5.93;;;11.90;99.90;;;;;;5069872;28;20474;-61
2022/12/29 04:25:35;;;;;;;12.50;6.73;;;11.90;99.90;;;;;;5088405;27;21086;-61
2022/12/29 04:28:02;;;;;;;16.83;6.00;;;11.80;99.90;;;;;;5057744;28;21017;-61
2022/12/29 04:30:29;;;;;;;8.90;5.33;;;11.90;99.90;;;;;;5054474;28;20478;-61
2022/12/29 04:32:56;;;;;;;17.80;8.80;;;11.80;99.90;;;;;;5036172;28;20504;-60
2022/12/29 04:35:22;;;;;;;9.67;3.40;;;11.90;99.90;;;;;;5066717;28;20853;-61
2022/12/29 04:37:49;;;;;;;23.40;11.47;;;11.80;99.90;;;;;;5033659;28;21045;-61
2022/12/29 04:40:17;;;;;;;12.70;6.93;;;11.90;99.90;;;;;;5040225;28;20886;-61
2022/12/29 04:42:44;;;;;;;19.80;8.37;;;11.80;99.90;;;;;;5032484;28;20791;-61
2022/12/29 04:45:11;;;;;;;7.30;4.90;;;11.80;99.90;;;;;;5034028;28;20705;-61
2022/12/29 04:47:38;;;;;;;11.70;6.50;;;11.90;99.90;;;;;;5031292;28;20908;-60
2022/12/29 04:50:05;;;;;;;14.97;6.10;;;11.90;99.90;;;;;;5041892;28;20480;-60
2022/12/29 04:52:32;;;;;;;12.07;6.50;;;11.90;99.90;;;;;;5026567;28;20533;-59
2022/12/29 04:54:58;;;;;;;16.10;8.27;;;11.90;99.90;;;;;;5037906;28;20491;-60
2022/12/29 04:57:27;;;;;;;15.00;5.20;;;11.90;99.90;;;;;;5035282;28;20750;-61
2022/12/29 04:59:53;;;;;;;16.50;9.10;;;12.00;99.90;;;;;;5037148;28;20495;-60
2022/12/29 05:02:20;;;;;;;13.60;5.80;;;12.10;99.90;;;;;;5035790;28;20499;-61
2022/12/29 05:04:47;;;;;;;21.53;8.53;;;12.00;99.90;;;;;;5034814;28;20481;-61
2022/12/29 05:07:14;;;;;;;17.40;5.10;;;12.00;99.90;;;;;;5036504;28;20922;-61
2022/12/29 05:09:40;;;;;;;11.50;5.60;;;12.00;99.90;;;;;;5035840;28;20574;-61
2022/12/29 05:12:07;;;;;;;14.70;5.60;;;12.00;99.90;;;;;;5032625;28;20822;-61
2022/12/29 05:14:35;;;;;;;13.40;6.93;;;12.10;99.90;;;;;;5041940;28;20945;-62
2022/12/29 05:17:02;;;;;;;12.37;6.90;;;12.10;99.90;;;;;;5031797;28;21206;-61
2022/12/29 05:19:28;;;;;;;14.97;6.10;;;12.30;99.90;;;;;;5035400;28;20491;-62
2022/12/29 05:21:55;;;;;;;19.20;9.60;;;12.20;99.90;;;;;;5030112;28;20991;-62
2022/12/29 05:24:22;;;;;;;11.07;6.20;;;12.30;99.90;;;;;;5020218;28;20945;-62
2022/12/29 05:26:48;;;;;;;19.40;8.20;;;12.30;99.90;;;;;;5049419;28;20476;-62
2022/12/29 05:29:15;;;;;;;9.40;5.33;;;12.20;99.90;;;;;;5029592;28;20487;-61
2022/12/29 05:31:43;;;;;;;12.23;7.40;;;12.30;99.90;;;;;;5034636;28;20852;-62
2022/12/29 05:34:11;;;;;;;10.47;4.00;;;12.30;99.90;;;;;;5035301;28;20858;-62
2022/12/29 05:36:38;;;;;;;12.67;6.40;;;12.40;99.90;;;;;;5023500;28;20459;-62
2022/12/29 05:39:06;;;;;;;8.50;4.77;;;12.50;99.90;;;;;;5046653;28;20488;-62
2022/12/29 05:41:34;;;;;;;15.73;5.70;;;12.50;99.90;;;;;;5033543;28;20514;-63
2022/12/29 05:44:01;;;;;;;13.50;7.07;;;12.40;99.90;;;;;;5033350;28;20490;-62
2022/12/29 05:46:28;;;;;;;14.40;7.10;;;12.40;99.90;;;;;;5034454;28;20480;-62
2022/12/29 05:48:56;;;;;;;13.13;5.83;;;12.50;99.90;;;;;;5036453;28;20848;-61
2022/12/29 05:51:22;;;;;;;6.97;4.30;;;12.40;99.90;;;;;;5036935;28;20464;-61
2022/12/29 05:53:49;;;;;;;26.03;11.67;;;12.50;99.90;;;;;;5033348;28;21040;-61
2022/12/29 05:56:16;;;;;;;18.20;4.50;;;12.50;99.80;;;;;;5035053;28;20495;-61
2022/12/29 05:58:43;;;;;;;8.27;5.03;;;12.60;99.90;;;;;;5040989;28;20492;-61
2022/12/29 06:01:09;;;;;;;7.40;4.47;;;12.50;99.60;;;;;;5031737;28;20902;-61
2022/12/29 06:03:36;;;;;;;16.87;7.10;;;12.50;99.60;;;;;;5023500;28;20861;-61
2022/12/29 06:06:05;;;;;;;11.30;6.07;;;12.60;99.60;;;;;;5031071;28;20913;-61
2022/12/29 06:08:31;;;;;;;13.17;6.30;;;12.50;99.60;;;;;;5057689;28;20517;-62
2022/12/29 06:10:58;;;;;;;18.93;7.20;;;12.60;99.40;;;;;;5034874;28;20488;-61
2022/12/29 06:13:25;;;;;;;11.60;6.40;;;12.70;99.60;;;;;;5024687;28;20940;-61
2022/12/29 06:15:51;;;;;;;25.77;11.70;;;12.70;99.70;;;;;;5043323;28;20484;-61
2022/12/29 06:18:18;;;;;;;14.60;5.23;;;12.40;99.50;;;;;;5036546;28;20488;-61
2022/12/29 06:20:45;;;;;;;16.67;8.67;;;12.60;99.70;;;;;;5033614;28;20468;-62
2022/12/29 06:23:13;;;;;;;10.60;5.50;;;12.70;99.30;;;;;;5035848;28;20975;-62
2022/12/29 06:25:40;;;;;;;14.00;5.57;;;12.60;99.30;;;;;;5034164;28;20882;-62
2022/12/29 06:28:06;;;;;;;12.20;6.43;;;12.70;99.10;;;;;;5036147;28;20488;-61
2022/12/29 06:30:33;;;;;;;9.50;5.40;;;12.80;99.10;;;;;;5032813;28;20476;-62
2022/12/29 06:33:00;;;;;;;20.80;7.63;;;12.80;99.00;;;;;;5030619;28;20861;-62
2022/12/29 06:35:26;;;;;;;15.00;7.60;;;12.80;98.80;;;;;;5037686;28;20494;-61
2022/12/29 06:37:53;;;;;;;18.67;9.30;;;12.80;98.70;;;;;;5035422;28;20513;-61
2022/12/29 06:40:22;;;;;;;13.47;5.40;;;12.90;99.00;;;;;;5040454;28;20484;-61
2022/12/29 06:42:49;;;;;;;23.90;11.87;;;12.80;98.80;;;;;;5029671;28;20487;-62
2022/12/29 06:45:16;;;;;;;12.93;6.00;;;12.90;98.80;;;;;;5040667;28;20574;-62
2022/12/29 06:47:43;;;;;;;15.63;6.97;;;12.90;98.70;;;;;;5035236;28;20746;-61
2022/12/29 06:50:09;;;;;;;12.13;7.37;;;12.80;98.70;;;;;;5039788;28;20719;-61
2022/12/29 06:52:36;;;;;;;10.10;6.80;;;12.90;98.60;;;;;;5027547;28;20492;-62
2022/12/29 06:55:03;;;;;;;15.90;7.10;;;13.00;98.70;;;;;;5043262;28;21002;-61
2022/12/29 06:57:31;;;;;;;9.37;5.40;;;12.80;98.50;;;;;;5049708;28;20487;-62
2022/12/29 06:59:58;;;;;;;15.50;8.67;;;12.80;98.50;;;;;;5032376;28;20460;-62
2022/12/29 07:02:25;;;;;;;12.00;5.90;;;12.80;98.70;;;;;;5037219;28;20483;-62
2022/12/29 07:04:52;;;;;;;30.87;13.13;;;12.70;98.70;;;;;;5041957;28;20490;-62
2022/12/29 07:07:19;;;;;;;7.73;5.20;;;12.80;98.80;;;;;;5038628;28;20567;-61
2022/12/29 07:09:46;;;;;;;21.67;8.13;;;12.80;99.10;;;;;;5031895;28;20483;-61
2022/12/29 07:12:13;;;;;;;7.00;4.73;;;12.80;98.80;;;;;;5030079;28;21035;-61
2022/12/29 07:14:41;;;;;;;14.80;6.97;;;12.80;99.00;;;;;;5039690;28;20482;-61
2022/12/29 07:17:08;;;;;;;18.53;6.27;;;12.80;98.70;;;;;;5064531;28;20471;-61
2022/12/29 07:19:34;;;;;;;15.30;7.00;;;12.90;99.00;;;;;;5032617;28;20479;-61
2022/12/29 07:22:01;;;;;;;20.63;9.03;;;12.80;99.00;;;;;;5040756;28;20487;-61
2022/12/29 07:24:28;;;;;;;21.97;7.50;;;12.90;99.20;;;;;;5045190;28;20797;-62
2022/12/29 07:26:54;;;;;;;18.43;8.93;;;12.80;99.00;;;;;;5040057;28;20488;-62
2022/12/29 07:29:21;;;;;;;11.50;6.50;;;12.80;99.20;;;;;;5043542;28;21011;-62
2022/12/29 07:31:49;;;;;;;24.07;9.43;;;12.80;99.20;;;;;;5036424;28;20666;-62
2022/12/29 07:34:16;;;;;;;10.73;6.27;;;12.80;99.20;;;;;;5032636;28;20480;-62
2022/12/29 07:36:42;;;;;;;16.00;7.70;;;12.90;99.60;;;;;;5031185;28;20729;-62
2022/12/29 07:39:09;;;;;;;15.53;5.87;;;12.80;99.80;;;;;;5048199;28;20472;-63
2022/12/29 07:41:36;;;;;;;10.73;5.70;;;12.60;99.60;;;;;;5033746;28;20487;-61
2022/12/29 07:44:02;;;;;;;18.70;8.47;;;12.80;99.60;;;;;;5027097;28;20482;-61
2022/12/29 07:46:29;;;;;;;19.03;7.83;;;12.70;99.60;;;;;;5044325;28;20476;-62
2022/12/29 07:48:57;;;;;;;21.20;9.73;;;12.80;99.70;;;;;;5031406;28;20496;-62
2022/12/29 07:51:24;;;;;;;11.50;6.57;;;12.80;99.80;;;;;;5018954;28;20459;-62
2022/12/29 07:53:50;;;;;;;19.60;9.67;;;12.80;99.90;;;;;;5036271;28;20496;-61
2022/12/29 07:56:17;;;;;;;10.00;5.30;;;12.60;99.90;;;;;;5055766;28;20483;-61
2022/12/29 07:58:44;;;;;;;11.97;6.40;;;12.70;99.90;;;;;;5029983;28;20493;-62
2022/12/29 08:01:10;;;;;;;22.67;6.00;;;12.60;99.90;;;;;;5035373;28;20488;-62
2022/12/29 08:03:37;;;;;;;15.93;7.03;;;;;;;;;;5017714;28;20480;-62
2022/12/29 08:06:06;;;;;;;28.43;9.13;;;12.60;99.90;;;;;;5050272;28;20484;-62
2022/12/29 08:08:32;;;;;;;30.60;8.17;;;12.70;99.90;;;;;;5037289;28;20491;-62
2022/12/29 08:10:59;;;;;;;32.93;9.20;;;12.70;99.90;;;;;;5035630;28;20483;-62
2022/12/29 08:13:26;;;;;;;16.00;7.00;;;12.60;99.90;;;;;;5037650;28;20488;-62
2022/12/29 08:15:53;;;;;;;34.33;10.23;;;;;;;;;;5030382;28;20500;-62
2022/12/29 08:18:19;;;;;;;28.00;7.17;;;12.80;99.90;;;;;;5032363;28;20480;-61
2022/12/29 08:20:46;;;;;;;31.53;9.27;;;12.80;99.90;;;;;;5025560;28;21060;-62
2022/12/29 08:23:14;;;;;;;30.00;7.30;;;12.60;99.90;;;;;;5028081;28;20923;-62
2022/12/29 08:25:41;;;;;;;21.03;8.43;;;12.50;99.90;;;;;;5034404;28;20492;-62
2022/12/29 08:28:08;;;;;;;30.17;9.30;;;;;;;;;;5033678;28;20964;-62
2022/12/29 08:30:34;;;;;;;30.13;7.97;;;12.50;99.90;;;;;;5036383;28;21199;-62
2022/12/29 08:33:01;;;;;;;20.27;7.57;;;;;;;;;;5037942;28;20468;-61
2022/12/29 08:35:28;;;;;;;30.13;8.90;;;12.30;99.90;;;;;;5037370;28;20848;-62
2022/12/29 08:37:55;;;;;;;37.23;9.43;;;12.20;99.90;;;;;;5035940;28;20491;-62
2022/12/29 08:40:24;;;;;;;17.60;6.90;;;12.20;99.90;;;;;;5029153;28;20495;-62
2022/12/29 08:42:51;;;;;;;41.40;10.57;;;;;;;;;;5023069;28;21015;-62
2022/12/29 08:45:18;;;;;;;26.37;7.97;;;12.00;99.90;;;;;;5037145;28;20484;-61
2022/12/29 08:47:44;;;;;;;43.83;12.97;;;12.00;99.90;;;;;;5036547;28;20487;-62
2022/12/29 08:50:11;;;;;;;27.60;10.00;;;11.90;99.90;;;;;;5026569;28;20515;-62
2022/12/29 08:52:38;;;;;;;21.40;7.50;;;11.90;99.90;;;;;;5049029;28;20479;-62
2022/12/29 08:55:05;;;;;;;30.30;8.00;;;11.90;99.90;;;;;;5036546;28;20483;-62
2022/12/29 08:57:33;;;;;;;31.63;9.93;;;;;;;;;;5033284;28;20488;-62
2022/12/29 09:00:00;;;;;;;35.40;10.10;;;;;;;;;;5025982;28;20497;-62
2022/12/29 09:02:27;;;;;;;26.67;7.90;;;11.90;99.90;;;;;;5036972;28;20477;-61
2022/12/29 09:04:54;;;;;;;23.07;10.33;;;11.80;99.90;;;;;;5033472;28;20476;-61
2022/12/29 09:07:20;;;;;;;30.13;8.40;;;11.80;99.90;;;;;;5028008;28;20483;-61
2022/12/29 09:09:47;;;;;;;36.23;13.43;;;11.70;99.90;;;;;;5032433;28;20491;-60
2022/12/29 09:12:14;;;;;;;24.27;6.63;;;11.90;99.90;;;;;;5028103;28;20489;-61
2022/12/29 09:14:42;;;;;;;29.13;6.50;;;11.90;99.90;;;;;;5022004;28;20479;-61
2022/12/29 09:19:53;;;;;;;26.63;7.83;;;;;;;;;;5048801;28;20592;-62
2022/12/29 09:22:20;;;;;;;14.17;4.60;;;;;;;;;;5039493;28;21003;-61
2022/12/29 09:24:47;;;;;;;36.57;12.30;;;11.90;99.90;;;;;;5013502;28;20521;-62
2022/12/29 09:27:14;;;;;;;30.03;7.07;;;12.10;99.90;;;;;;5038484;28;20488;-62
2022/12/29 09:29:42;;;;;;;27.73;9.40;;;12.10;99.90;;;;;;5033705;28;20877;-61
2022/12/29 09:32:08;;;;;;;30.70;7.70;;;12.20;99.90;;;;;;5035609;28;20488;-60
2022/12/29 09:34:36;;;;;;;30.00;8.20;;;;;;;;;;5025602;28;20563;-61
2022/12/29 09:37:02;;;;;;;28.63;7.17;;;12.30;99.90;;;;;;5028941;28;20475;-61
2022/12/29 09:39:29;;;;;;;29.30;9.40;;;12.20;99.90;;;;;;5022101;28;20509;-61
2022/12/29 09:42:02;;;;;;;39.17;11.27;;;12.30;99.90;;;;;;5041125;28;20660;-61
2022/12/29 09:44:37;;;;;;;21.77;6.50;;;;;;;;;;5034906;28;20487;-61
2022/12/29 09:47:07;;;;;;;24.13;8.53;;;12.40;99.90;;;;;;5035491;28;20480;-61
2022/12/29 09:49:45;;;;;;;21.40;8.47;;;12.40;99.90;;;;;;5029104;28;20494;-61
2022/12/29 09:52:15;;;;;;;21.03;7.83;;;;;;;;;;5035557;28;20487;-62
2022/12/29 09:54:49;;;;;;;18.40;6.70;;;12.50;99.90;;;;;;5032576;28;21111;-62
2022/12/29 09:57:21;;;;;;;23.93;6.67;;;12.40;99.90;;;;;;5027075;28;20476;-61
2022/12/29 09:59:51;;;;;;;29.47;7.93;;;12.50;99.90;;;;;;5028426;28;20541;-62
2022/12/29 10:02:31;;;;;;;13.77;5.40;;;12.60;99.90;;;;;;5027348;28;20494;-61
2022/12/29 10:04:59;;;;;;;41.80;9.77;;;12.70;99.90;;;;;;5037092;28;20820;-61
2022/12/29 10:07:34;;;;;;;25.80;7.73;;;12.80;99.90;;;;;;5033041;28;20529;-61
2022/12/29 10:10:15;;;;;;;18.50;5.83;;;12.70;99.90;;;;;;5034365;28;20547;-61
2022/12/29 10:12:55;;;;;;;26.27;7.50;;;12.80;99.90;;;;;;5015217;28;20487;-61
2022/12/29 10:15:31;;;;;;;17.70;5.17;;;;;;;;;;5032984;28;21049;-61
2022/12/29 10:18:09;;;;;;;31.60;9.80;;;13.00;99.90;;;;;;5027494;28;20480;-61
2022/12/29 10:20:44;;;;;;;31.00;7.77;;;13.10;99.90;;;;;;5019902;28;20484;-61
2022/12/29 10:23:25;;;;;;;25.53;5.80;;;13.10;99.90;;;;;;5035955;28;20495;-62
2022/12/29 10:25:56;;;;;;;48.77;11.20;;;13.00;99.90;;;;;;5022866;28;20491;-61
2022/12/29 10:28:25;;;;;;;18.40;5.70;;;12.50;99.90;;;;;;5035613;28;20494;-61
2022/12/29 10:30:54;;;;;;;38.97;9.60;;;13.10;99.90;;;;;;5022924;28;20542;-62
2022/12/29 10:33:25;;;;;;;18.67;4.87;;;;;;;;;;5030761;28;20487;-62
2022/12/29 10:35:52;;;;;;;44.63;11.60;;;13.10;99.90;;;;;;5027842;28;20471;-62
2022/12/29 10:38:26;;;;;;;28.87;7.40;;;13.10;99.90;;;;;;5038092;28;20479;-62
2022/12/29 10:40:58;;;;;;;43.80;11.00;;;12.80;99.90;;;;;;5043809;28;20486;-62
2022/12/29 10:43:27;;;;;;;26.53;7.07;;;12.90;99.90;;;;;;5034995;28;20559;-62
2022/12/29 10:45:56;;;;;;;32.70;9.90;;;;;;;;;;5022157;28;20484;-62
2022/12/29 10:48:27;;;;;;;18.47;5.40;;;13.00;99.90;;;;;;5028853;28;20855;-62
2022/12/29 10:50:58;;;;;;;32.90;10.50;;;12.80;99.90;;;;;;5030941;28;20487;-61
2022/12/29 10:53:28;;;;;;;32.33;6.07;;;12.70;99.90;;;;;;5019978;28;20838;-62
2022/12/29 10:55:56;;;;;;;30.10;7.47;;;;;;;;;;5036041;28;20510;-61
2022/12/29 10:58:25;;;;;;;29.00;6.10;;;12.90;99.90;;;;;;5032035;28;20479;-62
2022/12/29 11:00:53;;;;;;;39.13;9.80;;;12.80;99.90;;;;;;5032856;28;20499;-61
2022/12/29 11:03:34;;;;;;;21.83;5.20;;;;;;;;;;5032736;28;20475;-61
2022/12/29 11:06:08;;;;;;;24.43;6.80;;;12.40;99.90;;;;;;5041718;28;20483;-62
2022/12/29 11:08:40;;;;;;;17.63;4.10;;;12.20;99.90;;;;;;5041705;28;20489;-61
2022/12/29 11:11:09;;;;;;;38.20;6.17;;;12.10;99.90;;;;;;5052369;28;20576;-62
2022/12/29 11:13:48;;;;;;;25.33;6.60;;;11.90;99.90;;;;;;5048227;28;21216;-62
2022/12/29 11:16:14;;;;;;;24.43;6.07;;;11.90;99.90;;;;;;5040838;28;20475;-61
2022/12/29 11:18:47;;;;;;;19.63;5.30;;;;;;;;;;5051087;28;20967;-61
2022/12/29 11:21:27;;;;;;;24.20;6.10;;;11.80;99.90;;;;;;5049102;28;20485;-61
2022/12/29 11:23:57;;;;;;;37.87;7.27;;;11.80;99.90;;;;;;5067836;28;21290;-61
2022/12/29 11:26:24;;;;;;;16.40;4.50;;;11.80;99.90;;;;;;5027740;28;20548;-61
2022/12/29 11:29:18;;;;;;;30.33;9.00;;;11.80;99.90;;;;;;5048447;28;20494;-61
2022/12/29 11:31:46;;;;;;;36.43;8.40;;;11.80;99.90;;;;;;5044742;28;20520;-62
2022/12/29 11:34:20;;;;;;;27.47;6.50;;;;;;;;;;5055805;28;20476;-61
2022/12/29 11:36:47;;;;;;;32.40;8.10;;;11.50;99.90;;;;;;5055902;28;20897;-62
2022/12/29 11:39:28;;;;;;;25.47;6.87;;;11.60;99.90;;;;;;5049942;28;20479;-61
2022/12/29 11:41:55;;;;;;;29.60;9.67;;;11.60;99.90;;;;;;5053149;28;20485;-62
2022/12/29 11:44:22;;;;;;;18.23;4.97;;;11.70;99.90;;;;;;5053823;28;20475;-61
2022/12/29 11:46:51;;;;;;;29.07;5.37;;;;;;;;;;5033794;28;20494;-61
2022/12/29 11:49:22;;;;;;;17.43;5.47;;;;;;;;;;5050916;28;20482;-61
2022/12/29 11:51:51;;;;;;;33.17;9.33;;;11.70;99.90;;;;;;5055142;28;20494;-61
2022/12/29 11:54:20;;;;;;;47.33;4.90;;;;;;;;;;5064797;28;20971;-61
2022/12/29 11:56:47;;;;;;;29.27;7.63;;;11.80;99.90;;;;;;5056153;28;20487;-61
2022/12/29 11:59:43;;;;;;;14.93;4.83;;;11.80;99.90;;;;;;5053228;28;20479;-61
2022/12/29 12:02:27;;;;;;;12.73;4.07;;;11.70;99.90;;;;;;5056060;28;20471;-61
2022/12/29 12:05:02;;;;;;;30.77;8.53;;;11.70;99.90;;;;;;5050766;28;20515;-61
2022/12/29 12:07:38;;;;;;;31.93;5.23;;;11.70;99.90;;;;;;5037510;28;20636;-61
2022/12/29 12:10:08;;;;;;;29.07;5.10;;;;;;;;;;5049302;28;20480;-61
2022/12/29 12:12:41;;;;;;;24.17;5.03;;;11.50;99.90;;;;;;5039340;28;20498;-62
2022/12/29 12:15:14;;;;;;;28.53;6.50;;;11.40;99.90;;;;;;5048982;28;20486;-61
2022/12/29 12:17:48;;;;;;;19.00;4.30;;;11.40;99.90;;;;;;5032657;28;20611;-62
2022/12/29 12:20:21;;;;;;;22.77;6.00;;;;;;;;;;5051966;28;20482;-61
2022/12/29 12:22:55;;;;;;;25.77;6.23;;;11.40;99.90;;;;;;5049457;28;20569;-61
2022/12/29 12:25:24;;;;;;;19.53;4.80;;;;;;;;;;5063268;28;20474;-61
2022/12/29 12:27:57;;;;;;;35.00;9.13;;;11.40;99.90;;;;;;5043320;28;20494;-61
2022/12/29 12:30:26;;;;;;;19.77;4.60;;;;;;;;;;5054730;28;20498;-61
2022/12/29 12:32:55;;;;;;;55.33;12.03;;;;;;;;;;5042700;28;20487;-60
2022/12/29 12:35:32;;;;;;;21.47;5.03;;;11.40;99.90;;;;;;5040471;28;21104;-60
2022/12/29 12:38:06;;;;;;;34.60;6.93;;;;;;;;;;5049291;28;20590;-61
2022/12/29 12:40:42;;;;;;;24.27;5.80;;;;;;;;;;5052789;28;20482;-61
2022/12/29 12:43:26;;;;;;;20.37;5.00;;;11.30;99.90;;;;;;5048767;28;20483;-61
2022/12/29 12:46:03;;;;;;;27.53;8.50;;;11.30;99.90;;;;;;5032832;28;20863;-60
2022/12/29 12:48:40;;;;;;;21.67;6.10;;;;;;;;;;5020233;28;20474;-61
2022/12/29 12:51:20;;;;;;;13.70;3.30;;;11.10;99.90;;;;;;5046634;28;20720;-60
2022/12/29 12:53:54;;;;;;;39.37;8.27;;;;;;;;;;5061347;28;20849;-61
2022/12/29 12:56:34;;;;;;;19.37;4.60;;;;;;;;;;5054008;28;21016;-61
2022/12/29 12:59:06;;;;;;;25.77;5.93;;;;;;;;;;5045731;28;20573;-61
2022/12/29 13:01:42;;;;;;;23.50;4.30;;;10.80;99.90;;;;;;5036675;28;21470;-60
2022/12/29 13:04:34;;;;;;;30.83;6.40;;;10.70;99.90;;;;;;5061148;28;20487;-61
2022/12/29 13:07:12;;;;;;;34.63;6.83;;;10.70;99.90;;;;;;5029123;28;20923;-61
2022/12/29 13:09:57;;;;;;;44.63;7.63;;;10.50;99.90;;;;;;5029989;28;20899;-62
2022/12/29 13:12:35;;;;;;;20.10;4.37;;;10.50;99.90;;;;;;5055242;28;21000;-61
2022/12/29 13:15:13;;;;;;;30.07;7.40;;;10.50;99.90;;;;;;5039797;28;20486;-61
2022/12/29 13:17:44;;;;;;;25.67;4.40;;;;;;;;;;5068482;28;20556;-61
2022/12/29 13:20:25;;;;;;;33.17;6.03;;;10.50;99.90;;;;;;5061871;28;20542;-61
2022/12/29 13:22:58;;;;;;;48.00;10.20;;;;;;;;;;5058859;28;20857;-61
2022/12/29 13:25:28;;;;;;;28.03;5.00;;;;;;;;;;5044998;28;20483;-61
2022/12/29 13:28:04;;;;;;;37.97;7.93;;;10.50;99.90;;;;;;5050226;28;20482;-61
2022/12/29 13:30:35;;;;;;;27.90;6.37;;;10.60;99.90;;;;;;5041713;28;20621;-61
2022/12/29 13:33:07;;;;;;;27.87;5.80;;;;;;;;;;5063658;28;20636;-61
2022/12/29 13:35:59;;;;;;;29.23;5.97;;;10.50;99.90;;;;;;5053702;28;20834;-61
2022/12/29 13:38:33;;;;;;;33.80;5.70;;;10.50;99.90;;;;;;5027831;28;20493;-61
2022/12/29 13:41:02;;;;;;;32.97;6.83;;;10.50;99.90;;;;;;5035756;28;20526;-62